sensor_id;sensor_type;location;lat;lon;timestamp;pressure;altitude;pressure_sealevel;temperature;humidity
27643;BME280;15053;48.618;10.024;2023-03-01T00:01:02;94816.28;;;0.59;69.40
27643;BME280;15053;48.618;10.024;2023-03-01T00:03:29;94805.88;;;0.54;69.29
27643;BME280;15053;48.618;10.024;2023-03-01T00:05:55;94813.34;;;0.55;69.04
27643;BME280;15053;48.618;10.024;2023-03-01T00:08:22;94822.81;;;0.55;70.02
27643;BME280;15053;48.618;10.024;2023-03-01T00:10:48;94820.84;;;0.57;70.02
27643;BME280;15053;48.618;10.024;2023-03-01T00:13:14;94816.91;;;0.54;69.22
27643;BME280;15053;48.618;10.024;2023-03-01T00:15:41;94815.13;;;0.55;70.28
27643;BME280;15053;48.618;10.024;2023-03-01T00:18:08;94805.88;;;0.54;69.96
27643;BME280;15053;48.618;10.024;2023-03-01T00:20:34;94797.63;;;0.52;69.50
27643;BME280;15053;48.618;10.024;2023-03-01T00:23:01;94809.00;;;0.56;69.55
27643;BME280;15053;48.618;10.024;2023-03-01T00:25:27;94803.47;;;0.59;69.80
27643;BME280;15053;48.618;10.024;2023-03-01T00:27:54;94801.69;;;0.59;70.26
27643;BME280;15053;48.618;10.024;2023-03-01T00:30:20;94795.13;;;0.64;70.34
27643;BME280;15053;48.618;10.024;2023-03-01T00:32:46;94793.16;;;0.66;69.79
27643;BME280;15053;48.618;10.024;2023-03-01T00:35:13;94790.94;;;0.69;69.65
27643;BME280;15053;48.618;10.024;2023-03-01T00:37:39;94793.09;;;0.72;70.41
27643;BME280;15053;48.618;10.024;2023-03-01T00:40:08;94797.22;;;0.73;70.46
27643;BME280;15053;48.618;10.024;2023-03-01T00:42:35;94787.75;;;0.74;70.27
27643;BME280;15053;48.618;10.024;2023-03-01T00:45:01;94798.34;;;0.77;69.74
27643;BME280;15053;48.618;10.024;2023-03-01T00:47:29;94792.81;;;0.80;70.19
27643;BME280;15053;48.618;10.024;2023-03-01T00:49:55;94789.81;;;0.83;69.70
27643;BME280;15053;48.618;10.024;2023-03-01T00:52:22;94790.59;;;0.84;69.84
27643;BME280;15053;48.618;10.024;2023-03-01T00:54:48;94776.44;;;0.81;70.69
27643;BME280;15053;48.618;10.024;2023-03-01T00:57:17;94784.31;;;0.80;69.75
27643;BME280;15053;48.618;10.024;2023-03-01T00:59:44;94783.56;;;0.79;70.25
27643;BME280;15053;48.618;10.024;2023-03-01T01:02:10;94773.72;;;0.76;69.68
27643;BME280;15053;48.618;10.024;2023-03-01T01:04:37;94769.41;;;0.77;70.29
27643;BME280;15053;48.618;10.024;2023-03-01T01:07:03;94762.75;;;0.69;70.06
27643;BME280;15053;48.618;10.024;2023-03-01T01:09:30;94767.03;;;0.75;70.37
27643;BME280;15053;48.618;10.024;2023-03-01T01:11:56;94744.69;;;0.64;71.17
27643;BME280;15053;48.618;10.024;2023-03-01T01:14:23;94765.63;;;0.79;70.48
27643;BME280;15053;48.618;10.024;2023-03-01T01:16:49;94771.31;;;0.81;70.31
27643;BME280;15053;48.618;10.024;2023-03-01T01:19:16;94766.19;;;0.81;70.57
27643;BME280;15053;48.618;10.024;2023-03-01T01:21:43;94763.19;;;0.84;71.11
27643;BME280;15053;48.618;10.024;2023-03-01T01:24:11;94754.34;;;0.80;70.71
27643;BME280;15053;48.618;10.024;2023-03-01T01:26:38;94753.50;;;0.86;71.16
27643;BME280;15053;48.618;10.024;2023-03-01T01:29:05;94757.84;;;0.86;71.05
27643;BME280;15053;48.618;10.024;2023-03-01T01:31:32;94753.50;;;0.86;71.02
27643;BME280;15053;48.618;10.024;2023-03-01T01:34:01;94750.53;;;0.89;70.79
27643;BME280;15053;48.618;10.024;2023-03-01T01:36:28;94750.09;;;0.92;70.64
27643;BME280;15053;48.618;10.024;2023-03-01T01:38:56;94748.66;;;0.96;71.40
27643;BME280;15053;48.618;10.024;2023-03-01T01:41:24;94747.09;;;0.95;71.44
27643;BME280;15053;48.618;10.024;2023-03-01T01:44:24;94749.66;;;0.95;71.14
27643;BME280;15053;48.618;10.024;2023-03-01T01:47:07;94750.66;;;0.94;71.15
27643;BME280;15053;48.618;10.024;2023-03-01T01:49:53;94747.53;;;0.92;71.12
27643;BME280;15053;48.618;10.024;2023-03-01T01:52:35;94744.81;;;0.87;70.46
27643;BME280;15053;48.618;10.024;2023-03-01T01:55:08;94737.94;;;0.88;71.16
27643;BME280;15053;48.618;10.024;2023-03-01T01:57:39;94736.72;;;0.90;71.71
27643;BME280;15053;48.618;10.024;2023-03-01T02:00:23;94744.41;;;0.90;71.41
27643;BME280;15053;48.618;10.024;2023-03-01T02:02:55;94727.69;;;0.88;71.68
27643;BME280;15053;48.618;10.024;2023-03-01T02:05:45;94729.72;;;0.97;71.06
27643;BME280;15053;48.618;10.024;2023-03-01T02:08:23;94719.03;;;1.00;71.55
27643;BME280;15053;48.618;10.024;2023-03-01T02:10:51;94723.94;;;1.02;71.54
27643;BME280;15053;48.618;10.024;2023-03-01T02:13:18;94718.25;;;1.00;70.56
27643;BME280;15053;48.618;10.024;2023-03-01T02:15:45;94721.97;;;1.04;70.91
27643;BME280;15053;48.618;10.024;2023-03-01T02:18:14;94719.81;;;1.01;70.45
27643;BME280;15053;48.618;10.024;2023-03-01T02:21:08;94717.59;;;1.04;70.68
27643;BME280;15053;48.618;10.024;2023-03-01T02:23:38;94725.88;;;1.06;70.95
27643;BME280;15053;48.618;10.024;2023-03-01T02:26:15;94714.59;;;1.07;71.53
27643;BME280;15053;48.618;10.024;2023-03-01T02:28:44;94714.81;;;1.06;70.98
27643;BME280;15053;48.618;10.024;2023-03-01T02:31:15;94703.22;;;1.03;71.24
27643;BME280;15053;48.618;10.024;2023-03-01T02:34:02;94706.09;;;0.95;71.02
27643;BME280;15053;48.618;10.024;2023-03-01T02:36:40;94697.84;;;0.93;70.78
27643;BME280;15053;48.618;10.024;2023-03-01T02:39:12;94702.38;;;0.91;70.91
27643;BME280;15053;48.618;10.024;2023-03-01T02:41:47;94701.38;;;0.92;71.72
27643;BME280;15053;48.618;10.024;2023-03-01T02:44:15;94703.38;;;0.90;71.03
27643;BME280;15053;48.618;10.024;2023-03-01T02:46:53;94706.38;;;0.87;71.82
27643;BME280;15053;48.618;10.024;2023-03-01T02:49:27;94696.56;;;0.84;71.80
27643;BME280;15053;48.618;10.024;2023-03-01T02:55:00;94696.19;;;0.81;72.00
27643;BME280;15053;48.618;10.024;2023-03-01T02:57:28;94693.44;;;0.82;71.18
27643;BME280;15053;48.618;10.024;2023-03-01T02:59:56;94690.88;;;0.82;71.63
27643;BME280;15053;48.618;10.024;2023-03-01T03:02:26;94682.25;;;0.77;71.95
27643;BME280;15053;48.618;10.024;2023-03-01T03:05:13;94674.22;;;0.73;71.96
27643;BME280;15053;48.618;10.024;2023-03-01T03:07:42;94677.34;;;0.75;71.54
27643;BME280;15053;48.618;10.024;2023-03-01T03:10:17;94669.09;;;0.73;72.13
27643;BME280;15053;48.618;10.024;2023-03-01T03:12:54;94672.88;;;0.71;72.31
27643;BME280;15053;48.618;10.024;2023-03-01T03:15:21;94670.50;;;0.69;72.14
27643;BME280;15053;48.618;10.024;2023-03-01T03:17:49;94675.06;;;0.67;72.10
27643;BME280;15053;48.618;10.024;2023-03-01T03:20:18;94661.69;;;0.65;71.65
27643;BME280;15053;48.618;10.024;2023-03-01T03:22:50;94668.59;;;0.65;72.07
27643;BME280;15053;48.618;10.024;2023-03-01T03:25:18;94669.56;;;0.64;72.09
27643;BME280;15053;48.618;10.024;2023-03-01T03:27:46;94666.69;;;0.60;72.62
27643;BME280;15053;48.618;10.024;2023-03-01T03:30:16;94670.47;;;0.57;72.28
27643;BME280;15053;48.618;10.024;2023-03-01T03:32:45;94673.78;;;0.58;72.80
27643;BME280;15053;48.618;10.024;2023-03-01T03:35:40;94673.34;;;0.61;72.08
27643;BME280;15053;48.618;10.024;2023-03-01T03:38:09;94667.91;;;0.57;73.09
27643;BME280;15053;48.618;10.024;2023-03-01T03:40:44;94656.28;;;0.55;73.17
27643;BME280;15053;48.618;10.024;2023-03-01T03:43:18;94653.56;;;0.50;72.20
27643;BME280;15053;48.618;10.024;2023-03-01T03:45:46;94664.97;;;0.54;73.32
27643;BME280;15053;48.618;10.024;2023-03-01T03:48:13;94662.41;;;0.54;72.33
27643;BME280;15053;48.618;10.024;2023-03-01T03:50:41;94662.19;;;0.55;73.41
27643;BME280;15053;48.618;10.024;2023-03-01T03:53:11;94659.19;;;0.58;72.99
27643;BME280;15053;48.618;10.024;2023-03-01T03:55:39;94658.84;;;0.55;73.01
27643;BME280;15053;48.618;10.024;2023-03-01T03:58:07;94647.03;;;0.54;72.33
27643;BME280;15053;48.618;10.024;2023-03-01T04:00:36;94656.84;;;0.57;73.02
27643;BME280;15053;48.618;10.024;2023-03-01T04:03:03;94648.16;;;0.58;72.99
27643;BME280;15053;48.618;10.024;2023-03-01T04:05:29;94637.59;;;0.54;72.82
27643;BME280;15053;48.618;10.024;2023-03-01T04:07:57;94641.06;;;0.60;72.99
27643;BME280;15053;48.618;10.024;2023-03-01T04:10:32;94635.50;;;0.63;72.54
27643;BME280;15053;48.618;10.024;2023-03-01T04:12:58;94643.75;;;0.65;73.47
27643;BME280;15053;48.618;10.024;2023-03-01T04:15:26;94642.31;;;0.69;73.44
27643;BME280;15053;48.618;10.024;2023-03-01T04:17:54;94638.63;;;0.65;72.62
27643;BME280;15053;48.618;10.024;2023-03-01T04:20:24;94643.09;;;0.70;72.78
27643;BME280;15053;48.618;10.024;2023-03-01T04:23:05;94642.13;;;0.71;73.40
27643;BME280;15053;48.618;10.024;2023-03-01T04:25:51;94637.97;;;0.70;72.96
27643;BME280;15053;48.618;10.024;2023-03-01T04:28:23;94629.31;;;0.71;72.85
27643;BME280;15053;48.618;10.024;2023-03-01T04:30:54;94636.13;;;0.77;72.57
27643;BME280;15053;48.618;10.024;2023-03-01T04:33:22;94630.78;;;0.78;72.13
27643;BME280;15053;48.618;10.024;2023-03-01T04:35:49;94629.34;;;0.82;72.90
27643;BME280;15053;48.618;10.024;2023-03-01T04:38:19;94630.91;;;0.83;72.12
27643;BME280;15053;48.618;10.024;2023-03-01T04:40:47;94636.03;;;0.83;72.24
27643;BME280;15053;48.618;10.024;2023-03-01T04:43:14;94622.22;;;0.84;72.25
27643;BME280;15053;48.618;10.024;2023-03-01T04:45:41;94630.91;;;0.83;72.22
27643;BME280;15053;48.618;10.024;2023-03-01T04:48:08;94627.78;;;0.81;72.63
27643;BME280;15053;48.618;10.024;2023-03-01T04:50:34;94633.09;;;0.80;72.29
27643;BME280;15053;48.618;10.024;2023-03-01T04:53:01;94622.72;;;0.75;71.95
27643;BME280;15053;48.618;10.024;2023-03-01T04:55:28;94623.50;;;0.75;72.38
27643;BME280;15053;48.618;10.024;2023-03-01T04:57:55;94626.88;;;0.76;72.24
27643;BME280;15053;48.618;10.024;2023-03-01T05:00:21;94617.59;;;0.75;72.42
27643;BME280;15053;48.618;10.024;2023-03-01T05:02:53;94628.22;;;0.78;71.68
27643;BME280;15053;48.618;10.024;2023-03-01T05:07:57;94630.28;;;0.70;72.14
27643;BME280;15053;48.618;10.024;2023-03-01T05:10:24;94631.94;;;0.64;72.20
27643;BME280;15053;48.618;10.024;2023-03-01T05:12:51;94630.22;;;0.58;71.92
27643;BME280;15053;48.618;10.024;2023-03-01T05:15:21;94622.22;;;0.54;72.58
27643;BME280;15053;48.618;10.024;2023-03-01T05:17:56;94627.97;;;0.50;72.05
27643;BME280;15053;48.618;10.024;2023-03-01T05:20:29;94620.38;;;0.43;72.43
27643;BME280;15053;48.618;10.024;2023-03-01T05:22:59;94629.28;;;0.41;72.05
27643;BME280;15053;48.618;10.024;2023-03-01T05:25:26;94635.81;;;0.37;72.31
27643;BME280;15053;48.618;10.024;2023-03-01T05:27:53;94629.97;;;0.30;72.62
27643;BME280;15053;48.618;10.024;2023-03-01T05:30:19;94625.28;;;0.27;72.19
27643;BME280;15053;48.618;10.024;2023-03-01T05:32:48;94622.59;;;0.22;72.18
27643;BME280;15053;48.618;10.024;2023-03-01T05:35:17;94626.34;;;0.19;72.01
27643;BME280;15053;48.618;10.024;2023-03-01T05:37:46;94627.53;;;0.17;73.09
27643;BME280;15053;48.618;10.024;2023-03-01T05:40:22;94629.75;;;0.13;73.29
27643;BME280;15053;48.618;10.024;2023-03-01T05:42:53;94624.28;;;0.10;72.13
27643;BME280;15053;48.618;10.024;2023-03-01T05:45:22;94621.78;;;0.03;72.89
27643;BME280;15053;48.618;10.024;2023-03-01T05:47:49;94629.91;;;0.00;73.51
27643;BME280;15053;48.618;10.024;2023-03-01T05:50:18;94627.34;;;0.00;73.50
27643;BME280;15053;48.618;10.024;2023-03-01T05:52:50;94621.22;;;0.01;73.49
27643;BME280;15053;48.618;10.024;2023-03-01T05:55:20;94619.66;;;0.00;72.83
27643;BME280;15053;48.618;10.024;2023-03-01T05:57:47;94629.13;;;-0.01;73.12
27643;BME280;15053;48.618;10.024;2023-03-01T06:00:15;94624.00;;;-0.01;73.72
27643;BME280;15053;48.618;10.024;2023-03-01T06:02:42;94626.75;;;-0.02;73.13
27643;BME280;15053;48.618;10.024;2023-03-01T06:05:13;94628.19;;;-0.06;72.98
27643;BME280;15053;48.618;10.024;2023-03-01T06:07:41;94622.28;;;-0.07;73.68
27643;BME280;15053;48.618;10.024;2023-03-01T06:10:08;94621.72;;;-0.09;73.53
27643;BME280;15053;48.618;10.024;2023-03-01T06:12:37;94621.13;;;-0.11;73.16
27643;BME280;15053;48.618;10.024;2023-03-01T06:15:06;94628.81;;;-0.11;74.13
27643;BME280;15053;48.618;10.024;2023-03-01T06:17:35;94622.13;;;-0.12;73.65
27643;BME280;15053;48.618;10.024;2023-03-01T06:20:15;94623.53;;;-0.16;73.74
27643;BME280;15053;48.618;10.024;2023-03-01T06:22:43;94637.34;;;-0.17;74.06
27643;BME280;15053;48.618;10.024;2023-03-01T06:25:11;94633.22;;;-0.18;74.11
27643;BME280;15053;48.618;10.024;2023-03-01T06:27:39;94638.75;;;-0.21;73.26
27643;BME280;15053;48.618;10.024;2023-03-01T06:30:07;94630.50;;;-0.23;74.41
27643;BME280;15053;48.618;10.024;2023-03-01T06:32:34;94632.06;;;-0.22;73.60
27643;BME280;15053;48.618;10.024;2023-03-01T06:35:00;94624.19;;;-0.20;73.40
27643;BME280;15053;48.618;10.024;2023-03-01T06:37:27;94619.84;;;-0.20;73.86
27643;BME280;15053;48.618;10.024;2023-03-01T06:39:53;94610.59;;;-0.21;74.66
27643;BME280;15053;48.618;10.024;2023-03-01T06:42:19;94621.41;;;-0.19;73.68
27643;BME280;15053;48.618;10.024;2023-03-01T06:44:46;94615.06;;;-0.16;74.76
27643;BME280;15053;48.618;10.024;2023-03-01T06:47:13;94621.34;;;-0.12;73.82
27643;BME280;15053;48.618;10.024;2023-03-01T06:49:39;94621.13;;;-0.11;74.50
27643;BME280;15053;48.618;10.024;2023-03-01T06:52:05;94622.34;;;-0.13;73.65
27643;BME280;15053;48.618;10.024;2023-03-01T06:54:32;94615.25;;;-0.11;73.86
27643;BME280;15053;48.618;10.024;2023-03-01T06:56:58;94614.59;;;-0.07;74.36
27643;BME280;15053;48.618;10.024;2023-03-01T06:59:25;94611.06;;;-0.06;74.39
27643;BME280;15053;48.618;10.024;2023-03-01T07:01:51;94612.59;;;-0.05;73.87
27643;BME280;15053;48.618;10.024;2023-03-01T07:04:18;94617.31;;;-0.02;73.97
27643;BME280;15053;48.618;10.024;2023-03-01T07:06:44;94613.75;;;-0.01;74.46
27643;BME280;15053;48.618;10.024;2023-03-01T07:09:10;94610.19;;;0.00;74.14
27643;BME280;15053;48.618;10.024;2023-03-01T07:11:37;94620.00;;;0.04;73.38
27643;BME280;15053;48.618;10.024;2023-03-01T07:14:03;94620.56;;;0.06;73.36
27643;BME280;15053;48.618;10.024;2023-03-01T07:16:30;94617.38;;;0.10;73.47
27643;BME280;15053;48.618;10.024;2023-03-01T07:18:57;94612.03;;;0.12;73.86
27643;BME280;15053;48.618;10.024;2023-03-01T07:21:25;94619.53;;;0.13;73.29
27643;BME280;15053;48.618;10.024;2023-03-01T07:23:51;94617.31;;;0.17;73.92
27643;BME280;15053;48.618;10.024;2023-03-01T07:26:17;94608.78;;;0.23;74.02
27643;BME280;15053;48.618;10.024;2023-03-01T07:28:44;94610.72;;;0.27;73.85
27643;BME280;15053;48.618;10.024;2023-03-01T07:31:10;94605.50;;;0.34;73.27
27643;BME280;15053;48.618;10.024;2023-03-01T07:33:37;94591.28;;;0.38;73.29
27643;BME280;15053;48.618;10.024;2023-03-01T07:36:04;94595.06;;;0.35;73.29
27643;BME280;15053;48.618;10.024;2023-03-01T07:38:32;94596.72;;;0.41;72.79
27643;BME280;15053;48.618;10.024;2023-03-01T07:41:02;94595.53;;;0.44;73.00
27643;BME280;15053;48.618;10.024;2023-03-01T07:43:30;94591.09;;;0.51;72.92
27643;BME280;15053;48.618;10.024;2023-03-01T07:46:01;94585.75;;;0.52;71.66
27643;BME280;15053;48.618;10.024;2023-03-01T07:48:29;94587.88;;;0.55;71.81
27643;BME280;15053;48.618;10.024;2023-03-01T07:51:00;94583.34;;;0.57;71.90
27643;BME280;15053;48.618;10.024;2023-03-01T07:53:27;94581.47;;;0.65;71.49
27643;BME280;15053;48.618;10.024;2023-03-01T07:56:09;94587.28;;;0.72;71.72
27643;BME280;15053;48.618;10.024;2023-03-01T07:58:40;94584.09;;;0.76;71.03
27643;BME280;15053;48.618;10.024;2023-03-01T08:01:10;94584.09;;;0.76;70.35
27643;BME280;15053;48.618;10.024;2023-03-01T08:03:37;94587.56;;;0.82;70.31
27643;BME280;15053;48.618;10.024;2023-03-01T08:06:06;94587.31;;;0.83;70.58
27643;BME280;15053;48.618;10.024;2023-03-01T08:08:33;94575.41;;;0.89;70.35
27643;BME280;15053;48.618;10.024;2023-03-01T08:11:01;94565.28;;;0.82;70.26
27643;BME280;15053;48.618;10.024;2023-03-01T08:13:28;94577.13;;;0.95;68.94
27643;BME280;15053;48.618;10.024;2023-03-01T08:16:01;94582.16;;;1.01;69.34
27643;BME280;15053;48.618;10.024;2023-03-01T08:18:28;94570.00;;;1.08;69.94
27643;BME280;15053;48.618;10.024;2023-03-01T08:20:54;94582.41;;;1.11;69.52
27643;BME280;15053;48.618;10.024;2023-03-01T08:23:21;94548.81;;;1.01;69.54
27643;BME280;15053;48.618;10.024;2023-03-01T08:25:48;94571.03;;;1.19;68.43
27643;BME280;15053;48.618;10.024;2023-03-01T08:28:14;94568.38;;;1.26;68.80
27643;BME280;15053;48.618;10.024;2023-03-01T08:30:40;94561.34;;;1.33;68.84
27643;BME280;15053;48.618;10.024;2023-03-01T08:33:07;94559.56;;;1.33;69.07
27643;BME280;15053;48.618;10.024;2023-03-01T08:35:33;94567.47;;;1.43;68.64
27643;BME280;15053;48.618;10.024;2023-03-01T08:38:00;94564.47;;;1.46;67.67
27643;BME280;15053;48.618;10.024;2023-03-01T08:40:26;94572.06;;;1.53;66.97
27643;BME280;15053;48.618;10.024;2023-03-01T08:42:53;94565.94;;;1.54;66.85
27643;BME280;15053;48.618;10.024;2023-03-01T08:45:19;94562.69;;;1.58;67.13
27643;BME280;15053;48.618;10.024;2023-03-01T08:47:46;94564.16;;;1.66;66.74
27643;BME280;15053;48.618;10.024;2023-03-01T08:50:12;94565.28;;;1.70;66.37
27643;BME280;15053;48.618;10.024;2023-03-01T08:52:38;94559.69;;;1.73;66.71
27643;BME280;15053;48.618;10.024;2023-03-01T08:55:05;94550.53;;;1.77;66.13
27643;BME280;15053;48.618;10.024;2023-03-01T08:57:32;94566.25;;;1.92;66.13
27643;BME280;15053;48.618;10.024;2023-03-01T08:59:58;94560.78;;;2.00;65.91
27643;BME280;15053;48.618;10.024;2023-03-01T09:02:25;94563.13;;;2.02;66.26
27643;BME280;15053;48.618;10.024;2023-03-01T09:04:51;94564.00;;;2.07;65.32
27643;BME280;15053;48.618;10.024;2023-03-01T09:07:18;94559.97;;;2.11;65.22
27643;BME280;15053;48.618;10.024;2023-03-01T09:09:44;94555.38;;;2.13;65.26
27643;BME280;15053;48.618;10.024;2023-03-01T09:12:11;94554.59;;;2.13;65.13
27643;BME280;15053;48.618;10.024;2023-03-01T09:14:37;94555.03;;;2.21;64.59
27643;BME280;15053;48.618;10.024;2023-03-01T09:17:04;94547.41;;;2.26;64.87
27643;BME280;15053;48.618;10.024;2023-03-01T09:19:31;94547.41;;;2.38;64.96
27643;BME280;15053;48.618;10.024;2023-03-01T09:21:57;94546.78;;;2.48;64.59
27643;BME280;15053;48.618;10.024;2023-03-01T09:24:24;94543.22;;;2.49;64.43
27643;BME280;15053;48.618;10.024;2023-03-01T09:26:53;94538.16;;;2.54;63.82
27643;BME280;15053;48.618;10.024;2023-03-01T09:29:21;94531.88;;;2.61;63.69
27643;BME280;15053;48.618;10.024;2023-03-01T09:31:47;94535.78;;;2.64;63.59
27643;BME280;15053;48.618;10.024;2023-03-01T09:34:14;94533.16;;;2.75;64.10
27643;BME280;15053;48.618;10.024;2023-03-01T09:36:42;94530.06;;;2.90;63.86
27643;BME280;15053;48.618;10.024;2023-03-01T09:39:08;94528.91;;;2.97;63.69
27643;BME280;15053;48.618;10.024;2023-03-01T09:44:18;94515.34;;;3.19;63.07
27643;BME280;15053;48.618;10.024;2023-03-01T09:46:47;94518.00;;;3.24;62.94
27643;BME280;15053;48.618;10.024;2023-03-01T09:49:23;94517.38;;;3.33;62.45
27643;BME280;15053;48.618;10.024;2023-03-01T09:51:56;94510.88;;;3.47;62.56
27643;BME280;15053;48.618;10.024;2023-03-01T09:54:24;94512.59;;;3.58;62.10
27643;BME280;15053;48.618;10.024;2023-03-01T09:57:11;94514.03;;;3.71;62.01
27643;BME280;15053;48.618;10.024;2023-03-01T10:02:45;94507.94;;;3.99;61.34
27643;BME280;15053;48.618;10.024;2023-03-01T10:05:22;94507.00;;;4.05;60.76
27643;BME280;15053;48.618;10.024;2023-03-01T10:10:52;94509.47;;;4.16;59.93
27643;BME280;15053;48.618;10.024;2023-03-01T10:13:24;94506.28;;;4.31;59.41
27643;BME280;15053;48.618;10.024;2023-03-01T10:15:58;94509.50;;;4.43;59.56
27643;BME280;15053;48.618;10.024;2023-03-01T10:18:30;94515.31;;;4.55;59.43
27643;BME280;15053;48.618;10.024;2023-03-01T10:21:09;94510.28;;;4.70;59.88
27643;BME280;15053;48.618;10.024;2023-03-01T10:23:39;94511.72;;;4.83;59.90
27643;BME280;15053;48.618;10.024;2023-03-01T10:26:32;94510.03;;;4.99;59.64
27643;BME280;15053;48.618;10.024;2023-03-01T10:29:07;94493.31;;;5.06;58.92
27643;BME280;15053;48.618;10.024;2023-03-01T10:31:47;94496.78;;;5.22;58.80
27643;BME280;15053;48.618;10.024;2023-03-01T10:34:18;94491.41;;;5.28;57.08
27643;BME280;15053;48.618;10.024;2023-03-01T10:36:50;94491.72;;;5.32;56.84
27643;BME280;15053;48.618;10.024;2023-03-01T10:39:20;94483.50;;;5.40;57.30
27643;BME280;15053;48.618;10.024;2023-03-01T10:41:55;94483.06;;;5.53;56.93
27643;BME280;15053;48.618;10.024;2023-03-01T10:44:42;94474.38;;;5.69;56.51
27643;BME280;15053;48.618;10.024;2023-03-01T10:47:26;94469.56;;;5.88;55.71
27643;BME280;15053;48.618;10.024;2023-03-01T10:50:05;94467.84;;;5.99;55.38
27643;BME280;15053;48.618;10.024;2023-03-01T10:52:37;94459.59;;;6.07;55.97
27643;BME280;15053;48.618;10.024;2023-03-01T10:55:23;94463.47;;;6.09;54.98
27643;BME280;15053;48.618;10.024;2023-03-01T11:00:49;94459.09;;;6.15;54.84
27643;BME280;15053;48.618;10.024;2023-03-01T11:03:21;94452.66;;;6.22;54.84
27643;BME280;15053;48.618;10.024;2023-03-01T11:06:00;94447.00;;;6.40;54.04
27643;BME280;15053;48.618;10.024;2023-03-01T11:08:32;94441.59;;;6.37;53.80
27643;BME280;15053;48.618;10.024;2023-03-01T11:11:06;94443.66;;;6.45;53.30
27643;BME280;15053;48.618;10.024;2023-03-01T11:13:33;94444.69;;;6.49;53.43
27643;BME280;15053;48.618;10.024;2023-03-01T11:16:08;94442.16;;;6.59;52.92
27643;BME280;15053;48.618;10.024;2023-03-01T11:18:36;94428.69;;;6.82;53.86
27643;BME280;15053;48.618;10.024;2023-03-01T11:21:15;94432.59;;;7.05;53.46
27643;BME280;15053;48.618;10.024;2023-03-01T11:23:43;94435.41;;;7.24;52.56
27643;BME280;15053;48.618;10.024;2023-03-01T11:26:12;94432.28;;;7.32;52.44
27643;BME280;15053;48.618;10.024;2023-03-01T11:28:40;94434.31;;;7.45;52.29
27643;BME280;15053;48.618;10.024;2023-03-01T11:31:10;94423.94;;;7.50;52.48
27643;BME280;15053;48.618;10.024;2023-03-01T11:33:55;94431.50;;;7.46;52.16
27643;BME280;15053;48.618;10.024;2023-03-01T11:38:56;94411.53;;;7.47;51.29
27643;BME280;15053;48.618;10.024;2023-03-01T11:41:26;94412.00;;;7.69;52.56
27643;BME280;15053;48.618;10.024;2023-03-01T11:44:31;94403.63;;;7.87;52.08
27643;BME280;15053;48.618;10.024;2023-03-01T11:55:24;94386.78;;;8.39;50.57
27643;BME280;15053;48.618;10.024;2023-03-01T12:09:06;94366.38;;;9.23;48.91
27643;BME280;15053;48.618;10.024;2023-03-01T12:25:18;94338.94;;;10.02;47.13
27643;BME280;15053;48.618;10.024;2023-03-01T12:33:19;94328.34;;;10.36;47.29
27643;BME280;15053;48.618;10.024;2023-03-01T12:36:15;94318.47;;;10.51;47.01
27643;BME280;15053;48.618;10.024;2023-03-01T12:39:11;94304.00;;;10.45;46.54
27643;BME280;15053;48.618;10.024;2023-03-01T12:42:02;94311.88;;;10.73;46.49
27643;BME280;15053;48.618;10.024;2023-03-01T12:44:53;94309.00;;;10.88;45.74
27643;BME280;15053;48.618;10.024;2023-03-01T12:50:42;94294.47;;;11.00;44.58
27643;BME280;15053;48.618;10.024;2023-03-01T12:53:22;94285.28;;;10.89;44.75
27643;BME280;15053;48.618;10.024;2023-03-01T12:55:50;94286.06;;;10.90;44.27
27643;BME280;15053;48.618;10.024;2023-03-01T12:58:26;94293.03;;;10.94;44.27
27643;BME280;15053;48.618;10.024;2023-03-01T13:01:22;94295.25;;;11.01;44.17
27643;BME280;15053;48.618;10.024;2023-03-01T13:06:55;94286.06;;;10.90;43.94
27643;BME280;15053;48.618;10.024;2023-03-01T13:09:39;94293.81;;;10.95;44.11
27643;BME280;15053;48.618;10.024;2023-03-01T13:15:32;94283.97;;;11.19;44.31
27643;BME280;15053;48.618;10.024;2023-03-01T13:20:54;94279.44;;;11.38;43.61
27643;BME280;15053;48.618;10.024;2023-03-01T13:23:26;94276.56;;;11.40;42.72
27643;BME280;15053;48.618;10.024;2023-03-01T13:38:58;94256.28;;;11.37;43.63
27643;BME280;15053;48.618;10.024;2023-03-01T13:41:48;94256.03;;;11.60;43.58
27643;BME280;15053;48.618;10.024;2023-03-01T13:47:16;94269.31;;;11.50;42.85
27643;BME280;15053;48.618;10.024;2023-03-01T13:49:53;94271.31;;;11.67;43.18
27643;BME280;15053;48.618;10.024;2023-03-01T13:58:00;94277.31;;;11.81;42.00
27643;BME280;15053;48.618;10.024;2023-03-01T14:00:36;94281.16;;;11.83;41.99
27643;BME280;15053;48.618;10.024;2023-03-01T14:03:17;94277.59;;;11.79;41.59
27643;BME280;15053;48.618;10.024;2023-03-01T14:06:09;94285.69;;;11.92;42.20
27643;BME280;15053;48.618;10.024;2023-03-01T14:08:43;94285.63;;;12.19;42.20
27643;BME280;15053;48.618;10.024;2023-03-01T14:14:16;94292.84;;;12.22;41.20
27643;BME280;15053;48.618;10.024;2023-03-01T14:19:25;94294.19;;;11.97;41.42
27643;BME280;15053;48.618;10.024;2023-03-01T14:22:22;94295.31;;;12.05;41.72
27643;BME280;15053;48.618;10.024;2023-03-01T14:27:21;94294.16;;;12.11;41.70
27643;BME280;15053;48.618;10.024;2023-03-01T14:29:58;94297.81;;;12.10;41.97
27643;BME280;15053;48.618;10.024;2023-03-01T14:32:27;94293.56;;;12.14;41.78
27643;BME280;15053;48.618;10.024;2023-03-01T14:34:55;94297.69;;;12.15;42.08
27643;BME280;15053;48.618;10.024;2023-03-01T14:37:30;94289.66;;;12.25;42.22
27643;BME280;15053;48.618;10.024;2023-03-01T14:39:59;94289.03;;;12.28;42.19
27643;BME280;15053;48.618;10.024;2023-03-01T14:42:29;94290.91;;;12.27;41.97
27643;BME280;15053;48.618;10.024;2023-03-01T14:44:57;94287.72;;;12.17;41.29
27643;BME280;15053;48.618;10.024;2023-03-01T14:47:32;94285.72;;;12.14;41.68
27643;BME280;15053;48.618;10.024;2023-03-01T14:50:21;94286.44;;;12.06;41.44
27643;BME280;15053;48.618;10.024;2023-03-01T14:52:50;94283.97;;;12.09;42.30
27643;BME280;15053;48.618;10.024;2023-03-01T14:55:20;94278.09;;;12.04;41.83
27643;BME280;15053;48.618;10.024;2023-03-01T14:57:49;94278.03;;;11.95;42.70